รายงานสภาพอากาศบริเวณสนามบิน
3 ตุลาคม 2565 เวลา 18:00 น.
แม่สอด
   VTPM

ทิศและความเร็วลม

ลมเหนือ

2 Knots
   ทัศนวิสัย                  10 km

   ความกดอากาศ      1008 hPa

สภาพอากาศ

เมฆส่วนมาก

26℃
อุณหภูมิ
25℃
อุณหภูมิจุดน้ำค้าง
94%
ความชื้นสัมพัทธ์
METAR 24 ชั่วโมง

ADDS - METARS form results

METAR VTPM 031100Z 01002KT 9999 FEW012 BKN085 26/25 Q1008 NOSIG=
METAR VTPM 031000Z VRB02KT 9999 FEW010 SCT085 26/26 Q1007 NOSIG=
METAR VTPM 030900Z VRB01KT 9999 FEW008 BKN080 25/25 Q1007 NOSIG=
METAR VTPM 030800Z VRB02KT 9000 -RA FEW012 BKN045 25/25 Q1007 NOSIG=
METAR VTPM 030700Z VRB02KT 6000 -RA FEW003 SCT014 BKN020 25/24 Q1008 RERA NOSIG=
METAR VTPM 030600Z 33004KT 290V030 9999 SCT013 BKN019 27/27 Q1009
       TEMPO FM0615 4000 RA=
METAR VTPM 030500Z 34004KT 290V020 9999 FEW010 BKN016 26/26 Q1010 NOSIG=
METAR VTPM 030400Z VRB01KT 9000 -RA FEW008 SCT013 BKN060 26/25 Q1011 NOSIG=
METAR VTPM 030300Z VRB02KT 9999 -RA FEW008 BKN014 25/25 Q1012 NOSIG=
METAR VTPM 030200Z 34003KT 300V360 9999 FEW005 BKN013 OVC017 24/24 Q1011 NOSIG=
METAR VTPM 030100Z 32003KT 280V350 7000 -RA FEW004 BKN014 OVC020 24/24 Q1010 NOSIG=
METAR VTPM 030000Z VRB01KT 8000 -RA FEW004 SCT014 BKN038 23/23 Q1010 NOSIG=
METAR VTPM 022300Z 00000KT 8000 -RA FEW014 BKN060 OVC075 23/23 Q1009 NOSIG=
METAR VTPM 022200Z 00000KT 6000 -RA SCT013 OVC023 23/23 Q1008 NOSIG=

TAF VTPM 031700Z 0318/0418 34005KT 9999 SCT035
       TEMPO 0406/0409 06010G25KT 4000 TSRA FEW025CB BKN035=